createdAt,value
2022-09-25T00:01:23.801Z,4.50
2022-09-25T00:06:26.094Z,3.83
2022-09-25T00:11:27.632Z,2.83
2022-09-25T00:16:27.496Z,3.97
2022-09-25T00:21:31.526Z,5.43
2022-09-25T00:26:32.515Z,3.47
2022-09-25T00:31:31.117Z,2.35
2022-09-25T00:36:29.725Z,5.90
2022-09-25T00:41:28.448Z,4.78
2022-09-25T00:46:29.547Z,4.03
2022-09-25T00:51:30.026Z,2.30
2022-09-25T00:56:29.494Z,2.88
2022-09-25T01:01:29.373Z,2.75
2022-09-25T01:06:28.350Z,3.10
2022-09-25T01:11:27.744Z,3.10
2022-09-25T01:16:31.830Z,3.03
2022-09-25T01:21:34.907Z,6.37
2022-09-25T01:26:51.017Z,4.93
2022-09-25T01:31:55.341Z,4.45
2022-09-25T01:36:58.020Z,4.20
2022-09-25T01:41:57.924Z,3.83
2022-09-25T01:47:00.669Z,2.88
2022-09-25T01:51:59.720Z,5.45
2022-09-25T01:56:59.638Z,3.20
2022-09-25T02:02:00.889Z,3.70
2022-09-25T02:07:01.480Z,3.20
2022-09-25T02:12:01.850Z,5.05
2022-09-25T02:17:02.248Z,3.28
2022-09-25T02:22:04.584Z,4.05
2022-09-25T02:27:03.043Z,2.75
2022-09-25T02:32:05.025Z,4.63
2022-09-25T02:37:03.321Z,3.35
2022-09-25T02:42:09.495Z,6.20
2022-09-25T02:47:15.153Z,6.65
2022-09-25T02:52:15.013Z,6.82
2022-09-25T02:57:15.229Z,7.07
2022-09-25T03:02:15.923Z,6.97
2022-09-25T03:07:14.150Z,6.50
2022-09-25T03:12:12.343Z,6.95
2022-09-25T03:17:11.474Z,7.47
2022-09-25T03:22:12.117Z,5.80
2022-09-25T03:27:10.472Z,6.18
2022-09-25T03:32:10.613Z,6.68
2022-09-25T03:37:11.768Z,7.65
2022-09-25T03:42:11.402Z,9.68
2022-09-25T03:47:09.731Z,6.10
2022-09-25T03:52:14.567Z,12.10
2022-09-25T03:57:15.086Z,6.72
2022-09-25T04:02:13.886Z,9.05
2022-09-25T04:07:12.212Z,7.80
2022-09-25T04:12:11.389Z,7.50
2022-09-25T04:17:10.906Z,4.90
2022-09-25T04:22:09.182Z,5.88
2022-09-25T04:27:08.841Z,7.05
2022-09-25T04:32:24.293Z,9.02
2022-09-25T04:37:26.339Z,7.85
2022-09-25T04:42:25.271Z,9.55
2022-09-25T04:47:23.838Z,5.63
2022-09-25T04:52:22.017Z,6.63
2022-09-25T04:57:45.574Z,9.10
2022-09-25T05:02:41.336Z,6.85
2022-09-25T05:07:39.940Z,7.28
2022-09-25T05:12:41.344Z,7.57
2022-09-25T05:17:39.605Z,6.45
2022-09-25T05:22:37.848Z,11.02
2022-09-25T05:27:38.432Z,15.65
2022-09-25T05:32:38.219Z,12.43
2022-09-25T05:37:36.802Z,13.93
2022-09-25T05:42:35.090Z,14.60
2022-09-25T05:47:33.369Z,12.65
2022-09-25T05:52:33.075Z,11.57
2022-09-25T05:57:32.218Z,17.65
2022-09-25T06:02:30.455Z,15.70
2022-09-25T06:07:28.774Z,16.60
2022-09-25T06:12:29.797Z,20.67
2022-09-25T06:17:28.033Z,10.32
2022-09-25T06:22:26.297Z,10.00
2022-09-25T06:27:24.497Z,9.70
2022-09-25T06:32:24.473Z,17.17
2022-09-25T06:37:22.635Z,9.43
2022-09-25T06:42:20.877Z,10.18
2022-09-25T06:47:22.503Z,10.13
2022-09-25T06:52:24.418Z,11.98
2022-09-25T06:57:22.669Z,13.77
2022-09-25T07:02:37.403Z,12.45
2022-09-25T07:07:37.013Z,14.10
2022-09-25T07:12:35.244Z,19.02
2022-09-25T07:17:33.451Z,11.13
2022-09-25T07:22:31.768Z,13.35
2022-09-25T07:27:31.946Z,9.15
2022-09-25T07:32:31.760Z,20.52
2022-09-25T07:37:30.035Z,12.90
2022-09-25T07:42:28.268Z,12.07
2022-09-25T07:47:27.881Z,10.85
2022-09-25T07:52:26.073Z,9.23
2022-09-25T07:57:24.335Z,17.63
2022-09-25T08:02:22.644Z,13.75
2022-09-25T08:07:22.286Z,14.90
2022-09-25T08:12:20.471Z,11.38
2022-09-25T08:17:18.919Z,10.75
2022-09-25T08:22:17.077Z,10.05
2022-09-25T08:27:16.672Z,15.05
2022-09-25T08:32:14.881Z,10.98
2022-09-25T08:37:13.254Z,8.68
2022-09-25T08:42:15.361Z,17.92
2022-09-25T08:47:35.093Z,11.68
2022-09-25T08:52:33.764Z,6.28
2022-09-25T08:57:35.213Z,6.53
2022-09-25T09:02:39.565Z,7.68
2022-09-25T09:07:39.268Z,7.15
2022-09-25T09:12:40.402Z,8.27
2022-09-25T09:17:42.772Z,4.45
2022-09-25T09:22:43.458Z,4.85
2022-09-25T09:27:54.033Z,5.00
2022-09-25T09:33:05.231Z,3.50
2022-09-25T09:38:08.323Z,4.35
2022-09-25T09:43:10.733Z,4.57
2022-09-25T09:48:14.407Z,5.22
2022-09-25T09:53:19.968Z,6.68
2022-09-25T09:58:21.215Z,8.75
2022-09-25T10:03:23.835Z,4.15
2022-09-25T10:08:22.244Z,4.30
2022-09-25T10:13:21.822Z,5.70
2022-09-25T10:18:22.241Z,3.65
2022-09-25T10:23:31.846Z,4.35
2022-09-25T10:28:31.240Z,4.18
2022-09-25T10:33:31.581Z,3.42
2022-09-25T10:38:33.383Z,6.68
2022-09-25T10:43:31.840Z,5.10
2022-09-25T10:48:51.952Z,5.53
2022-09-25T10:53:51.177Z,4.43
2022-09-25T10:58:52.033Z,7.15
2022-09-25T11:03:53.495Z,5.30
2022-09-25T11:08:56.429Z,4.35
2022-09-25T11:13:55.746Z,6.28
2022-09-25T11:19:06.893Z,10.90
2022-09-25T11:24:09.536Z,3.10
2022-09-25T11:29:11.609Z,6.90
2022-09-25T11:34:15.155Z,3.95
2022-09-25T11:39:34.147Z,3.53
2022-09-25T11:44:36.106Z,4.53
2022-09-25T11:49:38.190Z,3.45
2022-09-25T11:54:42.384Z,3.10
2022-09-25T11:59:47.901Z,5.45
2022-09-25T12:04:57.076Z,3.88
2022-09-25T12:10:09.097Z,6.05
2022-09-25T12:15:11.260Z,3.83
2022-09-25T12:20:20.448Z,5.55
2022-09-25T12:25:26.318Z,4.78
2022-09-25T12:30:27.013Z,6.35
2022-09-25T12:35:33.992Z,6.18
2022-09-25T12:40:36.274Z,3.65
2022-09-25T12:45:58.502Z,4.13
2022-09-25T12:51:09.116Z,4.57
2022-09-25T12:56:12.364Z,5.40
2022-09-25T13:01:12.801Z,4.20
2022-09-25T13:06:15.667Z,8.02
2022-09-25T13:11:15.868Z,2.50
2022-09-25T13:16:16.187Z,7.38
2022-09-25T13:21:25.372Z,4.00
2022-09-25T13:26:25.190Z,2.88
2022-09-25T13:31:24.388Z,3.72
2022-09-25T13:36:38.856Z,5.15
2022-09-25T13:41:37.094Z,4.07
2022-09-25T13:46:37.272Z,3.75
2022-09-25T13:51:37.583Z,4.53
2022-09-25T13:56:49.392Z,4.45
2022-09-25T14:01:49.782Z,2.58
2022-09-25T14:06:54.083Z,6.68
2022-09-25T14:12:05.726Z,8.30
2022-09-25T14:17:05.969Z,4.43
2022-09-25T14:22:08.808Z,8.05
2022-09-25T14:27:24.038Z,4.22
2022-09-25T14:32:54.148Z,4.80
2022-09-25T14:37:59.772Z,7.47
2022-09-25T14:43:14.355Z,8.35
2022-09-25T14:48:16.133Z,4.68
2022-09-25T14:53:19.640Z,6.38
2022-09-25T14:58:20.213Z,4.50
2022-09-25T15:03:20.306Z,3.80
2022-09-25T15:08:24.457Z,5.07
2022-09-25T15:13:22.733Z,3.35
2022-09-25T15:18:21.025Z,17.67
2022-09-25T15:23:19.957Z,6.68
2022-09-25T15:28:20.889Z,16.27
2022-09-25T15:33:22.333Z,17.63
2022-09-25T15:38:20.494Z,10.18
2022-09-25T15:43:20.214Z,8.32
2022-09-25T15:48:22.086Z,5.88
2022-09-25T15:53:25.051Z,18.00
2022-09-25T15:58:24.577Z,36.15
2022-09-25T16:03:42.165Z,21.65
2022-09-25T16:08:40.354Z,16.65
2022-09-25T16:13:43.688Z,10.40
2022-09-25T16:18:42.446Z,13.73
2022-09-25T16:23:42.529Z,11.90
2022-09-25T16:28:48.602Z,20.40
2022-09-25T16:33:50.931Z,24.38
2022-09-25T16:39:06.070Z,40.30
2022-09-25T16:44:14.241Z,23.30
2022-09-25T16:49:13.392Z,9.90
2022-09-25T16:54:14.073Z,16.70
2022-09-25T16:59:17.413Z,12.95
2022-09-25T17:04:16.788Z,11.45
2022-09-25T17:09:15.715Z,23.70
2022-09-25T17:14:21.129Z,13.40
2022-09-25T17:19:19.426Z,10.02
2022-09-25T17:24:18.172Z,6.25
2022-09-25T17:29:17.824Z,5.35
2022-09-25T17:34:17.461Z,9.20
2022-09-25T17:39:15.741Z,11.57
2022-09-25T17:44:16.453Z,6.85
2022-09-25T17:49:16.570Z,8.82
2022-09-25T17:54:14.855Z,13.85
2022-09-25T17:59:13.986Z,18.98
2022-09-25T18:04:20.307Z,8.27
2022-09-25T18:09:18.617Z,4.18
2022-09-25T18:14:17.469Z,4.30
2022-09-25T18:19:33.750Z,5.18
2022-09-25T18:24:33.444Z,5.53
2022-09-25T18:29:31.764Z,6.70
2022-09-25T18:34:30.091Z,3.20
2022-09-25T18:39:28.425Z,6.05
2022-09-25T18:44:29.026Z,5.93
2022-09-25T18:49:28.352Z,6.85
2022-09-25T18:54:29.245Z,4.60
2022-09-25T18:59:29.032Z,3.80
2022-09-25T19:04:27.441Z,4.22
2022-09-25T19:09:27.789Z,3.85
2022-09-25T19:14:26.115Z,3.47
2022-09-25T19:19:25.622Z,4.25
2022-09-25T19:24:23.894Z,5.25
2022-09-25T19:29:22.184Z,3.50
2022-09-25T19:34:20.486Z,4.20
2022-09-25T19:39:20.121Z,6.35
2022-09-25T19:44:19.156Z,4.75
2022-09-25T19:49:18.242Z,2.95
2022-09-25T19:54:16.509Z,9.07
2022-09-25T19:59:17.437Z,5.30
2022-09-25T20:04:18.902Z,5.22
2022-09-25T20:09:17.803Z,3.88
2022-09-25T20:14:20.412Z,3.30
2022-09-25T20:19:19.940Z,3.42
2022-09-25T20:24:20.004Z,4.28
2022-09-25T20:29:19.829Z,2.70
2022-09-25T20:34:19.257Z,2.90
2022-09-25T20:39:21.225Z,5.05
2022-09-25T20:44:21.201Z,5.22
2022-09-25T20:49:20.402Z,5.30
2022-09-25T20:54:18.747Z,4.10
2022-09-25T20:59:18.179Z,3.03
2022-09-25T21:04:19.516Z,3.30
2022-09-25T21:09:20.336Z,3.45
2022-09-25T21:14:19.994Z,3.03
2022-09-25T21:19:21.254Z,5.57
2022-09-25T21:24:20.047Z,2.92
2022-09-25T21:29:18.770Z,4.07
2022-09-25T21:34:17.147Z,3.00
2022-09-25T21:39:16.813Z,3.28
2022-09-25T21:44:16.362Z,3.53
2022-09-25T21:49:16.400Z,3.70
2022-09-25T21:54:16.657Z,3.95
2022-09-25T21:59:17.652Z,3.45
2022-09-25T22:04:16.452Z,3.80
2022-09-25T22:09:16.960Z,2.70
2022-09-25T22:14:23.590Z,2.72
2022-09-25T22:19:24.989Z,2.92
2022-09-25T22:24:24.857Z,4.38
2022-09-25T22:29:23.550Z,7.13
2022-09-25T22:34:22.599Z,3.58
2022-09-25T22:39:21.234Z,3.50
2022-09-25T22:44:21.708Z,4.10
2022-09-25T22:49:19.919Z,5.45
2022-09-25T22:54:18.222Z,4.55
2022-09-25T22:59:18.129Z,8.63
2022-09-25T23:04:18.659Z,4.15
2022-09-25T23:09:17.698Z,3.53
2022-09-25T23:14:17.247Z,7.10
2022-09-25T23:19:15.741Z,4.97
2022-09-25T23:24:16.267Z,5.13
2022-09-25T23:29:15.716Z,4.65
2022-09-25T23:34:14.209Z,6.28
2022-09-25T23:39:15.771Z,3.33
2022-09-25T23:44:15.382Z,4.30
2022-09-25T23:49:13.724Z,3.50
2022-09-25T23:54:12.241Z,3.45
2022-09-25T23:59:11.740Z,3.10
